createdAt,value
2022-09-17T00:00:48.307Z,97298.59
2022-09-17T00:03:16.286Z,97298.41
2022-09-17T00:05:43.548Z,97297.38
2022-09-17T00:08:15.141Z,97286.44
2022-09-17T00:10:43.807Z,97276.19
2022-09-17T00:13:11.871Z,97283.75
2022-09-17T00:15:43.485Z,97277.50
2022-09-17T00:18:11.311Z,97273.28
2022-09-17T00:20:45.640Z,97282.31
2022-09-17T00:23:13.975Z,97281.41
2022-09-17T00:25:42.517Z,97284.47
2022-09-17T00:28:09.777Z,97292.28
2022-09-17T00:30:40.470Z,97297.19
2022-09-17T00:33:07.364Z,97289.63
2022-09-17T00:35:34.490Z,97290.53
2022-09-17T00:38:01.369Z,97290.72
2022-09-17T00:40:28.371Z,97294.06
2022-09-17T00:42:55.284Z,97297.88
2022-09-17T00:45:22.998Z,97297.34
2022-09-17T00:47:58.841Z,97298.88
2022-09-17T00:50:42.317Z,97304.47
2022-09-17T00:53:14.851Z,97303.87
2022-09-17T00:55:45.944Z,97298.22
2022-09-17T00:58:13.674Z,97294.41
2022-09-17T01:00:40.822Z,97292.50
2022-09-17T01:03:07.997Z,97296.22
2022-09-17T01:05:42.745Z,97308.00
2022-09-17T01:08:34.609Z,97312.91
2022-09-17T01:11:12.547Z,97321.69
2022-09-17T01:14:06.739Z,97319.44
2022-09-17T01:16:46.205Z,97311.34
2022-09-17T01:19:38.894Z,97312.63
2022-09-17T01:22:23.489Z,97305.28
2022-09-17T01:25:05.131Z,97297.75
2022-09-17T01:28:13.932Z,97292.59
2022-09-17T01:30:59.653Z,97296.38
2022-09-17T01:34:01.625Z,97305.03
2022-09-17T01:36:38.594Z,97316.69
2022-09-17T01:39:45.443Z,97319.38
2022-09-17T01:42:38.324Z,97315.50
2022-09-17T01:45:10.334Z,97306.69
2022-09-17T01:47:44.976Z,97298.97
2022-09-17T01:50:20.626Z,97303.53
2022-09-17T01:52:50.169Z,97300.63
2022-09-17T01:55:18.962Z,97298.28
2022-09-17T01:57:54.017Z,97289.75
2022-09-17T02:00:22.302Z,97295.53
2022-09-17T02:03:08.524Z,97294.72
2022-09-17T02:05:42.288Z,97287.56
2022-09-17T02:08:16.338Z,97283.81
2022-09-17T02:10:46.057Z,97274.19
2022-09-17T02:13:33.332Z,97271.78
2022-09-17T02:16:08.807Z,97264.41
2022-09-17T02:18:57.347Z,97264.44
2022-09-17T02:21:55.265Z,97257.22
2022-09-17T02:24:25.909Z,97250.47
2022-09-17T02:27:17.477Z,97245.34
2022-09-17T02:29:45.259Z,97240.69
2022-09-17T02:32:13.621Z,97235.72
2022-09-17T02:34:40.630Z,97232.44
2022-09-17T02:37:08.003Z,97217.38
2022-09-17T02:39:35.127Z,97227.16
2022-09-17T02:42:23.454Z,97215.94
2022-09-17T02:45:06.347Z,97205.13
2022-09-17T02:48:30.497Z,97183.16
2022-09-17T02:51:33.438Z,97165.59
2022-09-17T02:54:16.846Z,97152.53
2022-09-17T02:56:52.234Z,97146.50
2022-09-17T02:59:31.766Z,97139.00
2022-09-17T03:02:20.136Z,97155.69
2022-09-17T03:04:48.930Z,97165.25
2022-09-17T03:07:18.443Z,97177.06
2022-09-17T03:09:45.508Z,97177.81
2022-09-17T03:12:13.393Z,97168.94
2022-09-17T03:14:40.246Z,97170.16
2022-09-17T03:17:07.235Z,97172.19
2022-09-17T03:19:34.122Z,97171.75
2022-09-17T03:22:00.971Z,97173.34
2022-09-17T03:24:27.845Z,97169.09
2022-09-17T03:26:55.144Z,97162.91
2022-09-17T03:29:22.026Z,97170.63
2022-09-17T03:31:48.977Z,97179.25
2022-09-17T03:34:15.881Z,97184.44
2022-09-17T03:36:42.841Z,97190.25
2022-09-17T03:39:09.796Z,97186.78
2022-09-17T03:41:36.714Z,97185.78
2022-09-17T03:44:03.753Z,97172.69
2022-09-17T03:46:30.847Z,97184.22
2022-09-17T03:48:57.789Z,97186.50
2022-09-17T03:51:24.696Z,97183.78
2022-09-17T03:53:51.585Z,97182.69
2022-09-17T03:56:18.548Z,97176.50
2022-09-17T03:58:45.476Z,97171.88
2022-09-17T04:01:12.366Z,97172.87
2022-09-17T04:03:39.335Z,97177.12
2022-09-17T04:06:06.460Z,97167.03
2022-09-17T04:08:34.126Z,97169.44
2022-09-17T04:11:01.005Z,97166.59
2022-09-17T04:13:27.921Z,97155.91
2022-09-17T04:15:55.155Z,97148.09
2022-09-17T04:18:22.131Z,97128.34
2022-09-17T04:20:48.971Z,97129.50
2022-09-17T04:23:15.851Z,97129.16
2022-09-17T04:25:43.085Z,97122.44
2022-09-17T04:28:10.234Z,97132.69
2022-09-17T04:30:37.394Z,97135.75
2022-09-17T04:33:04.885Z,97135.06
2022-09-17T04:35:31.795Z,97144.59
2022-09-17T04:37:58.668Z,97140.34
2022-09-17T04:40:26.575Z,97142.87
2022-09-17T04:42:59.608Z,97162.06
2022-09-17T04:45:26.742Z,97153.69
2022-09-17T04:47:53.621Z,97154.88
2022-09-17T04:50:20.595Z,97159.03
2022-09-17T04:52:47.986Z,97165.19
2022-09-17T04:55:15.699Z,97167.38
2022-09-17T04:57:50.832Z,97173.41
2022-09-17T05:00:19.009Z,97162.62
2022-09-17T05:02:47.558Z,97168.44
2022-09-17T05:05:14.786Z,97169.50
2022-09-17T05:07:42.077Z,97176.19
2022-09-17T05:10:09.983Z,97186.56
2022-09-17T05:12:36.905Z,97190.50
2022-09-17T05:15:04.765Z,97205.72
2022-09-17T05:17:31.984Z,97206.88
2022-09-17T05:19:58.836Z,97214.81
2022-09-17T05:22:25.756Z,97222.84
2022-09-17T05:24:52.671Z,97227.44
2022-09-17T05:27:19.601Z,97221.97
2022-09-17T05:29:46.884Z,97217.78
2022-09-17T05:32:13.745Z,97209.38
2022-09-17T05:34:41.656Z,97202.38
2022-09-17T05:37:11.789Z,97194.25
2022-09-17T05:39:38.636Z,97197.00
2022-09-17T05:42:05.705Z,97200.97
2022-09-17T05:44:32.848Z,97203.91
2022-09-17T05:46:59.952Z,97207.50
2022-09-17T05:49:26.930Z,97195.31
2022-09-17T05:51:53.776Z,97193.59
2022-09-17T05:54:20.843Z,97197.44
2022-09-17T05:56:47.778Z,97204.06
2022-09-17T05:59:15.762Z,97211.91
2022-09-17T06:01:42.911Z,97207.34
2022-09-17T06:04:09.868Z,97219.28
2022-09-17T06:06:38.025Z,97209.78
2022-09-17T06:09:08.963Z,97211.37
2022-09-17T06:11:36.689Z,97203.03
2022-09-17T06:14:03.944Z,97216.97
2022-09-17T06:16:31.211Z,97218.28
2022-09-17T06:18:58.156Z,97215.28
2022-09-17T06:21:25.010Z,97217.34
2022-09-17T06:23:51.980Z,97217.66
2022-09-17T06:26:19.091Z,97211.44
2022-09-17T06:28:46.471Z,97217.22
2022-09-17T06:31:14.073Z,97210.38
2022-09-17T06:33:41.102Z,97211.84
2022-09-17T06:36:14.164Z,97210.00
2022-09-17T06:38:41.696Z,97208.44
2022-09-17T06:41:09.071Z,97193.59
2022-09-17T06:43:36.136Z,97202.78
2022-09-17T06:46:06.319Z,97198.50
2022-09-17T06:48:35.203Z,97183.25
2022-09-17T06:51:04.647Z,97186.91
2022-09-17T06:53:32.025Z,97180.09
2022-09-17T06:56:05.239Z,97189.00
2022-09-17T06:58:34.190Z,97186.38
2022-09-17T07:01:02.040Z,97199.25
2022-09-17T07:03:30.268Z,97212.97
2022-09-17T07:05:57.941Z,97216.41
2022-09-17T07:08:26.249Z,97225.97
2022-09-17T07:10:56.928Z,97224.25
2022-09-17T07:13:24.654Z,97238.12
2022-09-17T07:15:59.482Z,97243.19
2022-09-17T07:18:27.052Z,97245.59
2022-09-17T07:21:01.131Z,97243.84
2022-09-17T07:23:30.242Z,97257.16
2022-09-17T07:25:59.268Z,97259.63
2022-09-17T07:28:26.662Z,97266.38
2022-09-17T07:30:54.002Z,97266.59
2022-09-17T07:33:26.119Z,97274.28
2022-09-17T07:35:58.044Z,97285.06
2022-09-17T07:38:25.665Z,97293.25
2022-09-17T07:41:06.118Z,97310.87
2022-09-17T07:43:34.515Z,97310.09
2022-09-17T07:46:03.453Z,97308.28
2022-09-17T07:48:30.545Z,97303.06
2022-09-17T07:50:57.519Z,97307.47
2022-09-17T07:53:24.630Z,97312.56
2022-09-17T07:55:55.992Z,97310.47
2022-09-17T07:58:34.588Z,97308.22
2022-09-17T08:01:03.386Z,97307.00
2022-09-17T08:03:30.792Z,97299.06
2022-09-17T08:06:08.803Z,97296.78
2022-09-17T08:08:36.720Z,97282.66
2022-09-17T08:11:23.688Z,97276.75
2022-09-17T08:14:00.064Z,97286.97
2022-09-17T08:16:27.062Z,97285.75
2022-09-17T08:18:57.790Z,97283.94
2022-09-17T08:21:24.897Z,97299.69
2022-09-17T08:23:51.791Z,97289.47
2022-09-17T08:26:21.741Z,97282.72
2022-09-17T08:28:56.610Z,97292.34
2022-09-17T08:31:25.400Z,97283.72
2022-09-17T08:33:52.375Z,97289.56
2022-09-17T08:36:21.345Z,97287.56
2022-09-17T08:38:49.866Z,97290.81
2022-09-17T08:41:24.659Z,97281.56
2022-09-17T08:44:31.943Z,97282.34
2022-09-17T08:47:02.060Z,97290.72
2022-09-17T08:49:34.920Z,97297.00
2022-09-17T08:52:07.184Z,97308.91
2022-09-17T08:54:55.096Z,97316.53
2022-09-17T08:57:24.973Z,97313.03
2022-09-17T08:59:57.845Z,97312.00
2022-09-17T09:02:39.460Z,97302.34
2022-09-17T09:05:10.819Z,97305.47
2022-09-17T09:07:43.368Z,97306.44
2022-09-17T09:10:17.977Z,97312.56
2022-09-17T09:12:45.125Z,97307.09
2022-09-17T09:15:45.889Z,97300.34
2022-09-17T09:18:27.492Z,97290.16
2022-09-17T09:20:59.964Z,97287.81
2022-09-17T09:23:58.751Z,97281.19
2022-09-17T09:26:46.391Z,97283.81
2022-09-17T09:29:31.592Z,97299.56
2022-09-17T09:32:16.689Z,97275.59
2022-09-17T09:34:44.306Z,97270.91
2022-09-17T09:37:14.124Z,97275.28
2022-09-17T09:39:46.048Z,97263.19
2022-09-17T09:42:25.412Z,97261.41
2022-09-17T09:44:52.373Z,97264.03
2022-09-17T09:47:40.340Z,97263.06
2022-09-17T09:50:48.381Z,97240.75
2022-09-17T09:53:26.193Z,97232.22
2022-09-17T09:55:55.973Z,97242.97
2022-09-17T09:58:40.737Z,97250.72
2022-09-17T10:01:16.509Z,97244.41
2022-09-17T10:03:46.406Z,97243.16
2022-09-17T10:06:16.877Z,97249.19
2022-09-17T10:09:03.610Z,97252.00
2022-09-17T10:11:34.902Z,97233.63
2022-09-17T10:14:18.478Z,97227.66
2022-09-17T10:16:45.576Z,97220.91
2022-09-17T10:19:28.000Z,97217.84
2022-09-17T10:21:54.989Z,97219.37
2022-09-17T10:24:27.991Z,97234.75
2022-09-17T10:27:06.308Z,97256.06
2022-09-17T10:29:33.877Z,97276.22
2022-09-17T10:32:00.949Z,97273.50
2022-09-17T10:34:29.691Z,97276.03
2022-09-17T10:36:57.434Z,97270.53
2022-09-17T10:39:27.316Z,97270.47
2022-09-17T10:42:17.443Z,97277.19
2022-09-17T10:45:04.700Z,97275.31
2022-09-17T10:47:36.933Z,97268.69
2022-09-17T10:50:16.557Z,97273.84
2022-09-17T10:52:49.249Z,97253.41
2022-09-17T10:55:35.188Z,97257.66
2022-09-17T10:58:08.237Z,97263.03
2022-09-17T11:00:35.055Z,97250.66
2022-09-17T11:03:17.329Z,97236.34
2022-09-17T11:05:57.948Z,97224.16
2022-09-17T11:08:42.805Z,97221.63
2022-09-17T11:11:12.389Z,97217.56
2022-09-17T11:13:55.023Z,97201.34
2022-09-17T11:16:46.966Z,97205.84
2022-09-17T11:19:22.914Z,97207.22
2022-09-17T11:22:04.509Z,97188.50
2022-09-17T11:24:59.219Z,97190.28
2022-09-17T11:27:50.491Z,97178.63
2022-09-17T11:30:18.434Z,97180.41
2022-09-17T11:32:55.070Z,97176.38
2022-09-17T11:35:25.958Z,97183.50
2022-09-17T11:38:03.993Z,97187.53
2022-09-17T11:40:42.918Z,97171.97
2022-09-17T11:43:26.766Z,97186.28
2022-09-17T11:46:13.939Z,97190.06
2022-09-17T11:49:16.978Z,97178.94
2022-09-17T11:51:59.039Z,97154.75
2022-09-17T11:54:30.379Z,97139.41
2022-09-17T11:57:12.099Z,97141.00
2022-09-17T11:59:54.687Z,97142.94
2022-09-17T12:02:39.163Z,97133.53
2022-09-17T12:05:11.887Z,97123.22
2022-09-17T12:07:47.645Z,97116.06
2022-09-17T12:10:33.335Z,97114.16
2022-09-17T12:13:14.567Z,97120.97
2022-09-17T12:15:49.744Z,97124.16
2022-09-17T12:18:32.956Z,97126.16
2022-09-17T12:21:02.902Z,97138.81
2022-09-17T12:23:40.635Z,97140.34
2022-09-17T12:26:22.812Z,97158.97
2022-09-17T12:28:57.736Z,97170.97
2022-09-17T12:31:37.490Z,97172.28
2022-09-17T12:34:32.487Z,97165.66
2022-09-17T12:37:22.626Z,97156.09
2022-09-17T12:39:58.586Z,97167.88
2022-09-17T12:42:38.938Z,97164.38
2022-09-17T12:45:32.859Z,97151.91
2022-09-17T12:48:25.505Z,97139.38
2022-09-17T12:51:19.801Z,97138.81
2022-09-17T12:53:46.647Z,97140.16
2022-09-17T12:56:54.015Z,97130.47
2022-09-17T12:59:22.632Z,97127.59
2022-09-17T13:02:05.075Z,97121.59
2022-09-17T13:05:00.989Z,97120.06
2022-09-17T13:07:48.631Z,97101.03
2022-09-17T13:10:41.222Z,97076.66
2022-09-17T13:13:49.731Z,97077.41
2022-09-17T13:16:24.212Z,97095.47
2022-09-17T13:19:16.232Z,97087.59
2022-09-17T13:21:50.866Z,97075.72
2022-09-17T13:24:20.211Z,97080.69
2022-09-17T13:26:47.131Z,97075.38
2022-09-17T13:29:48.857Z,97076.22
2022-09-17T13:32:51.486Z,97073.81
2022-09-17T13:35:18.352Z,97082.97
2022-09-17T13:37:54.224Z,97074.47
2022-09-17T13:40:28.467Z,97072.06
2022-09-17T13:42:57.559Z,97075.28
2022-09-17T13:45:25.537Z,97080.09
2022-09-17T13:47:56.497Z,97082.56
2022-09-17T13:50:34.083Z,97089.28
2022-09-17T13:53:16.105Z,97094.97
2022-09-17T13:55:48.405Z,97094.72
2022-09-17T13:58:21.133Z,97100.03
2022-09-17T14:00:58.944Z,97102.44
2022-09-17T14:03:31.816Z,97097.50
2022-09-17T14:06:19.643Z,97109.88
2022-09-17T14:08:54.767Z,97114.00
2022-09-17T14:11:25.448Z,97110.00
2022-09-17T14:13:55.663Z,97119.69
2022-09-17T14:16:29.362Z,97128.56
2022-09-17T14:19:22.543Z,97126.16
2022-09-17T14:21:59.832Z,97132.94
2022-09-17T14:24:33.155Z,97134.44
2022-09-17T14:27:16.411Z,97124.97
2022-09-17T14:29:49.342Z,97135.31
2022-09-17T14:32:46.928Z,97123.22
2022-09-17T14:35:20.200Z,97120.94
2022-09-17T14:37:55.105Z,97129.25
2022-09-17T14:40:24.747Z,97137.38
2022-09-17T14:42:55.344Z,97149.78
2022-09-17T14:45:37.506Z,97145.91
2022-09-17T14:48:26.647Z,97139.88
2022-09-17T14:51:11.554Z,97134.13
2022-09-17T14:53:38.456Z,97127.53
2022-09-17T14:56:05.836Z,97117.34
2022-09-17T14:58:36.684Z,97108.34
2022-09-17T15:01:03.765Z,97094.63
2022-09-17T15:03:30.640Z,97085.06
2022-09-17T15:05:57.565Z,97085.25
2022-09-17T15:08:26.073Z,97079.16
2022-09-17T15:11:04.418Z,97065.44
2022-09-17T15:13:36.124Z,97056.75
2022-09-17T15:16:05.126Z,97056.66
2022-09-17T15:18:55.157Z,97055.06
2022-09-17T15:21:43.215Z,97050.66
2022-09-17T15:24:21.920Z,97049.03
2022-09-17T15:26:54.098Z,97036.00
2022-09-17T15:29:27.425Z,97025.66
2022-09-17T15:31:54.479Z,97029.03
2022-09-17T15:34:22.840Z,97032.62
2022-09-17T15:37:18.696Z,97032.62
2022-09-17T15:39:51.541Z,97017.88
2022-09-17T15:42:27.854Z,97011.56
2022-09-17T15:45:17.203Z,97022.31
2022-09-17T15:47:58.879Z,97010.91
2022-09-17T15:50:33.125Z,96999.31
2022-09-17T15:53:09.182Z,97002.31
2022-09-17T15:55:38.521Z,97014.38
2022-09-17T15:58:21.310Z,97013.34
2022-09-17T16:00:48.270Z,97031.09
2022-09-17T16:03:36.841Z,97012.03
2022-09-17T16:06:04.940Z,97023.81
2022-09-17T16:08:35.473Z,97024.94
2022-09-17T16:11:02.412Z,97035.87
2022-09-17T16:13:29.292Z,97038.38
2022-09-17T16:15:56.306Z,97034.16
2022-09-17T16:18:23.293Z,97027.00
2022-09-17T16:20:50.143Z,97015.19
2022-09-17T16:23:17.036Z,97002.38
2022-09-17T16:25:44.199Z,97002.47
2022-09-17T16:28:13.994Z,97026.69
2022-09-17T16:30:48.433Z,97035.94
2022-09-17T16:33:16.926Z,97008.19
2022-09-17T16:35:44.220Z,96996.28
2022-09-17T16:38:11.845Z,97010.09
2022-09-17T16:40:43.290Z,97005.72
2022-09-17T16:43:10.239Z,97009.94
2022-09-17T16:45:37.407Z,97027.44
2022-09-17T16:48:05.312Z,97038.03
2022-09-17T16:50:32.645Z,97039.00
2022-09-17T16:53:04.165Z,97030.47
2022-09-17T16:55:31.923Z,97030.97
2022-09-17T16:57:59.177Z,97021.84
2022-09-17T17:00:26.116Z,97020.03
2022-09-17T17:02:57.387Z,97035.28
2022-09-17T17:05:25.618Z,97044.84
2022-09-17T17:07:52.599Z,97032.31
2022-09-17T17:10:20.438Z,97036.78
2022-09-17T17:12:47.522Z,97041.19
2022-09-17T17:15:14.523Z,97061.69
2022-09-17T17:17:41.388Z,97058.78
2022-09-17T17:20:09.986Z,97053.41
2022-09-17T17:22:37.986Z,97072.13
2022-09-17T17:25:06.344Z,97075.00
2022-09-17T17:27:34.067Z,97061.47
2022-09-17T17:30:04.658Z,97062.22
2022-09-17T17:32:31.792Z,97072.19
2022-09-17T17:34:58.724Z,97076.09
2022-09-17T17:37:26.947Z,97076.25
2022-09-17T17:39:54.529Z,97076.97
2022-09-17T17:42:21.836Z,97082.16
2022-09-17T17:44:48.749Z,97090.00
2022-09-17T17:47:15.685Z,97101.00
2022-09-17T17:49:44.655Z,97108.00
2022-09-17T17:52:11.603Z,97109.78
2022-09-17T17:54:38.510Z,97109.75
2022-09-17T17:57:05.439Z,97119.63
2022-09-17T17:59:32.367Z,97119.94
2022-09-17T18:01:59.350Z,97124.16
2022-09-17T18:04:26.387Z,97130.72
2022-09-17T18:06:53.244Z,97140.84
2022-09-17T18:09:20.156Z,97133.59
2022-09-17T18:11:47.016Z,97140.81
2022-09-17T18:14:14.179Z,97147.91
2022-09-17T18:16:41.092Z,97135.97
2022-09-17T18:19:09.788Z,97139.16
2022-09-17T18:21:36.663Z,97135.34
2022-09-17T18:24:03.709Z,97133.38
2022-09-17T18:26:31.719Z,97125.25
2022-09-17T18:28:58.600Z,97141.09
2022-09-17T18:31:29.535Z,97144.75
2022-09-17T18:33:58.786Z,97140.13
2022-09-17T18:36:27.290Z,97137.41
2022-09-17T18:39:16.715Z,97142.56
2022-09-17T18:41:48.573Z,97141.06
2022-09-17T18:44:15.523Z,97150.16
2022-09-17T18:46:42.835Z,97145.22
2022-09-17T18:49:09.881Z,97146.16
2022-09-17T18:51:38.057Z,97143.66
2022-09-17T18:54:04.992Z,97148.53
2022-09-17T18:56:36.030Z,97151.63
2022-09-17T18:59:07.757Z,97158.75
2022-09-17T19:01:35.646Z,97156.78
2022-09-17T19:04:03.060Z,97160.78
2022-09-17T19:06:30.651Z,97148.94
2022-09-17T19:09:00.841Z,97157.13
2022-09-17T19:11:28.106Z,97150.50
2022-09-17T19:13:55.261Z,97152.75
2022-09-17T19:16:22.555Z,97161.03
2022-09-17T19:18:49.826Z,97166.00
2022-09-17T19:21:18.878Z,97164.84
2022-09-17T19:23:47.402Z,97168.13
2022-09-17T19:26:16.839Z,97173.09
2022-09-17T19:28:43.822Z,97185.31
2022-09-17T19:31:13.433Z,97177.09
2022-09-17T19:33:40.414Z,97189.37
2022-09-17T19:36:10.779Z,97185.19
2022-09-17T19:38:38.160Z,97192.03
2022-09-17T19:41:07.313Z,97193.63
2022-09-17T19:43:34.352Z,97188.66
2022-09-17T19:46:27.675Z,97195.03
2022-09-17T19:48:56.542Z,97198.22
2022-09-17T19:51:26.019Z,97192.25
2022-09-17T19:53:53.341Z,97206.66
2022-09-17T19:56:23.213Z,97191.91
2022-09-17T19:58:50.586Z,97197.38
2022-09-17T20:01:17.884Z,97201.09
2022-09-17T20:03:45.675Z,97204.00
2022-09-17T20:06:14.415Z,97205.84
2022-09-17T20:08:50.419Z,97192.06
2022-09-17T20:11:21.683Z,97197.16
2022-09-17T20:13:48.965Z,97210.94
2022-09-17T20:16:18.942Z,97208.75
2022-09-17T20:18:46.111Z,97202.94
2022-09-17T20:21:15.512Z,97208.03
2022-09-17T20:23:42.564Z,97200.28
2022-09-17T20:26:10.080Z,97197.13
2022-09-17T20:28:36.979Z,97201.59
2022-09-17T20:31:12.697Z,97186.91
2022-09-17T20:33:39.615Z,97205.63
2022-09-17T20:36:10.342Z,97206.97
2022-09-17T20:41:24.906Z,97214.34
2022-09-17T20:43:52.843Z,97211.94
2022-09-17T20:46:24.822Z,97222.47
2022-09-17T20:48:55.041Z,97220.88
2022-09-17T20:51:23.694Z,97225.22
2022-09-17T20:53:51.259Z,97224.50
2022-09-17T20:56:22.521Z,97230.62
2022-09-17T20:59:07.953Z,97235.41
2022-09-17T21:01:35.898Z,97233.31
2022-09-17T21:04:04.510Z,97241.81
2022-09-17T21:06:33.433Z,97234.03
2022-09-17T21:09:00.776Z,97240.50
2022-09-17T21:11:29.348Z,97245.12
2022-09-17T21:13:56.215Z,97247.53
2022-09-17T21:16:23.161Z,97259.31
2022-09-17T21:18:58.545Z,97273.84
2022-09-17T21:21:26.318Z,97266.59
2022-09-17T21:23:53.597Z,97272.66
2022-09-17T21:26:22.876Z,97272.22
2022-09-17T21:28:51.263Z,97275.94
2022-09-17T21:31:29.591Z,97277.06
2022-09-17T21:34:03.472Z,97264.72
2022-09-17T21:36:32.833Z,97270.16
2022-09-17T21:39:02.746Z,97274.47
2022-09-17T21:41:30.110Z,97274.47
2022-09-17T21:43:56.978Z,97284.56
2022-09-17T21:46:26.337Z,97293.22
2022-09-17T21:48:56.078Z,97284.34
2022-09-17T21:51:25.168Z,97291.88
2022-09-17T21:53:53.866Z,97289.31
2022-09-17T21:56:21.739Z,97298.94
2022-09-17T21:58:56.462Z,97297.00
2022-09-17T22:01:31.596Z,97287.84
2022-09-17T22:03:59.505Z,97290.31
2022-09-17T22:06:30.157Z,97294.78
2022-09-17T22:08:58.614Z,97291.59
2022-09-17T22:11:29.715Z,97293.22
2022-09-17T22:14:00.873Z,97295.34
2022-09-17T22:16:30.820Z,97297.78
2022-09-17T22:18:59.679Z,97299.03
2022-09-17T22:21:28.207Z,97296.06
2022-09-17T22:23:57.553Z,97299.91
2022-09-17T22:26:25.593Z,97296.56
2022-09-17T22:28:52.858Z,97301.22
2022-09-17T22:31:20.558Z,97298.84
2022-09-17T22:33:48.429Z,97293.88
2022-09-17T22:36:20.715Z,97291.28
2022-09-17T22:38:49.562Z,97289.84
2022-09-17T22:41:18.628Z,97291.16
2022-09-17T22:43:45.862Z,97297.88
2022-09-17T22:46:19.724Z,97293.66
2022-09-17T22:48:47.592Z,97292.72
2022-09-17T22:51:15.115Z,97305.03
2022-09-17T22:53:42.424Z,97292.75
2022-09-17T22:56:14.598Z,97301.31
2022-09-17T22:58:42.492Z,97299.22
2022-09-17T23:01:15.822Z,97303.66
2022-09-17T23:03:43.471Z,97305.31
2022-09-17T23:06:18.773Z,97309.78
2022-09-17T23:08:45.679Z,97308.94
2022-09-17T23:11:24.069Z,97308.25
2022-09-17T23:13:51.839Z,97313.56
2022-09-17T23:16:19.579Z,97311.84
2022-09-17T23:18:46.591Z,97309.13
2022-09-17T23:21:16.642Z,97305.22
2022-09-17T23:23:45.411Z,97304.44
2022-09-17T23:26:18.777Z,97302.84
2022-09-17T23:28:45.970Z,97304.78
2022-09-17T23:31:18.379Z,97311.63
2022-09-17T23:33:46.235Z,97313.50
2022-09-17T23:36:16.038Z,97308.94
2022-09-17T23:38:44.614Z,97313.50
2022-09-17T23:41:29.421Z,97298.91
2022-09-17T23:43:58.773Z,97302.25
2022-09-17T23:46:27.115Z,97296.97
2022-09-17T23:48:54.550Z,97306.28
2022-09-17T23:51:22.719Z,97303.59
2022-09-17T23:53:49.736Z,97299.84
2022-09-17T23:56:19.700Z,97305.78
2022-09-17T23:58:46.665Z,97308.97
